createdAt,value
2018-01-24T12:32:16.217Z,0.70
2018-01-24T12:34:43.712Z,0.70
2018-01-24T12:37:11.227Z,0.90
2018-01-24T12:39:43.878Z,0.80
2018-01-24T12:42:11.375Z,0.70
2018-01-24T12:44:38.882Z,0.87
2018-01-24T12:47:06.442Z,0.97
2018-01-24T12:49:33.953Z,0.60
2018-01-24T12:54:54.631Z,0.60
2018-01-24T12:57:22.158Z,0.60
2018-01-24T12:59:49.665Z,0.57
2018-01-24T13:02:17.178Z,0.50
2018-01-24T13:04:47.381Z,0.50
2018-01-24T14:05:56.472Z,1.90
2018-01-24T14:08:26.485Z,2.67
2018-01-24T14:10:56.435Z,1.60
2018-01-24T14:16:17.988Z,1.03
2018-01-24T14:18:50.528Z,1.67
2018-01-24T14:21:18.470Z,0.80
2018-01-24T14:23:46.100Z,0.80
2018-01-24T14:26:13.764Z,0.67
2018-01-24T14:28:41.439Z,0.63
2018-01-24T14:31:09.108Z,0.63
2018-01-24T14:33:36.899Z,0.80
2018-01-24T14:36:04.585Z,0.80
2018-01-24T14:38:32.359Z,0.67
2018-01-24T14:41:00.452Z,0.73
2018-01-24T14:43:28.032Z,0.70
2018-01-24T14:45:56.487Z,0.80
2018-01-24T14:48:24.163Z,0.70
2018-01-24T14:51:02.174Z,1.23
2018-01-24T14:53:29.715Z,0.90
2018-01-24T14:56:02.540Z,1.70
2018-01-24T14:58:30.126Z,0.60
2018-01-24T15:00:57.811Z,0.83
2018-01-24T15:03:26.512Z,0.60
2018-01-24T15:05:54.143Z,0.63
2018-01-24T15:08:21.814Z,0.73
2018-01-24T15:10:49.483Z,0.83
2018-01-24T15:13:17.220Z,0.50
2018-01-24T15:15:44.828Z,0.73
2018-01-24T15:18:14.499Z,0.90
2018-01-24T15:20:42.142Z,0.70
2018-01-24T15:23:09.856Z,0.90
2018-01-24T15:25:37.490Z,0.80
2018-01-24T15:28:05.161Z,0.60
2018-01-24T15:30:32.878Z,0.60
2018-01-24T15:33:00.870Z,0.60
2018-01-24T15:35:28.571Z,0.50
2018-01-24T15:37:56.224Z,0.60
2018-01-24T15:40:23.871Z,0.70
2018-01-24T15:42:51.502Z,0.90
2018-01-24T15:45:19.253Z,0.70
2018-01-24T15:47:47.288Z,0.60
2018-01-24T15:50:14.906Z,0.73
2018-01-24T15:52:42.556Z,0.60
2018-01-24T15:55:10.251Z,0.70
2018-01-24T15:57:37.887Z,0.60
2018-01-24T16:00:05.595Z,0.50
2018-01-24T16:02:33.217Z,0.70
2018-01-24T16:05:00.898Z,0.70
2018-01-24T16:07:28.523Z,0.67
2018-01-24T16:10:02.523Z,0.60
2018-01-24T16:12:30.187Z,0.63
2018-01-24T16:14:58.128Z,0.50
2018-01-24T16:17:25.744Z,0.50
2018-01-24T16:19:53.388Z,0.60
2018-01-24T16:22:21.051Z,0.80
2018-01-24T16:24:48.762Z,0.80
2018-01-24T16:27:16.374Z,0.80
2018-01-24T16:29:44.095Z,0.60
2018-01-24T16:32:14.388Z,0.80
2018-01-24T16:34:44.462Z,0.80
2018-01-24T16:37:12.437Z,0.77
2018-01-24T16:39:39.970Z,0.80
2018-01-24T16:42:07.506Z,1.10
2018-01-24T16:44:35.123Z,0.63
2018-01-24T16:47:02.791Z,0.80
2018-01-24T16:49:30.466Z,0.80
2018-01-24T16:51:58.121Z,0.80
2018-01-24T16:54:32.197Z,0.60
2018-01-24T16:57:00.179Z,0.80
2018-01-24T16:59:27.931Z,0.60
2018-01-24T17:01:55.546Z,0.90
2018-01-24T17:04:23.180Z,1.10
2018-01-24T17:06:50.903Z,0.70
2018-01-24T17:09:20.554Z,1.07
2018-01-24T17:11:48.198Z,0.70
2018-01-24T17:14:15.865Z,0.70
2018-01-24T17:16:43.592Z,0.90
2018-01-24T17:19:11.587Z,0.80
2018-01-24T17:21:39.260Z,0.60
2018-01-24T17:24:06.901Z,0.70
2018-01-24T17:26:34.580Z,0.60
2018-01-24T17:29:02.318Z,0.70
2018-01-24T17:31:32.539Z,0.80
2018-01-24T17:34:00.606Z,0.97
2018-01-24T17:36:28.277Z,0.80
2018-01-24T17:38:55.980Z,0.80
2018-01-24T17:41:23.602Z,0.60
2018-01-24T17:43:51.292Z,0.80
2018-01-24T17:46:18.917Z,0.83
2018-01-24T17:48:46.615Z,0.80
2018-01-24T17:51:14.463Z,0.70
2018-01-24T17:53:42.171Z,0.97
2018-01-24T17:56:09.793Z,0.90
2018-01-24T17:58:37.436Z,0.80
2018-01-24T18:01:05.196Z,0.70
2018-01-24T18:03:32.792Z,0.80
2018-01-24T18:06:00.544Z,0.90
2018-01-24T18:08:28.192Z,0.93
2018-01-24T18:10:55.799Z,0.80
2018-01-24T18:13:23.889Z,1.17
2018-01-24T18:15:51.943Z,1.03
2018-01-24T18:18:19.575Z,0.70
2018-01-24T18:20:47.323Z,0.83
2018-01-24T18:23:20.670Z,0.90
2018-01-24T18:25:48.723Z,0.73
2018-01-24T18:28:16.395Z,0.60
2018-01-24T18:30:44.461Z,0.90
2018-01-24T18:33:12.155Z,0.90
2018-01-24T18:35:44.594Z,0.93
2018-01-24T18:38:12.220Z,0.90
2018-01-24T18:40:44.674Z,1.03
2018-01-24T18:43:12.426Z,1.00
2018-01-24T18:45:40.048Z,1.00
2018-01-24T18:48:07.763Z,0.60
2018-01-24T18:50:35.382Z,0.80
2018-01-24T18:53:08.605Z,0.90
2018-01-24T18:55:36.205Z,0.90
2018-01-24T18:58:03.828Z,0.80
2018-01-24T19:00:31.544Z,0.90
2018-01-24T19:02:59.235Z,0.83
2018-01-24T19:05:26.835Z,1.03
2018-01-24T19:07:54.550Z,0.83
2018-01-24T19:10:22.178Z,1.00
2018-01-24T19:12:49.907Z,1.00
2018-01-24T19:15:17.496Z,0.90
2018-01-24T19:17:45.106Z,1.00
2018-01-24T19:20:12.756Z,1.00
2018-01-24T19:22:40.357Z,0.90
2018-01-24T19:25:08.055Z,0.90
2018-01-24T19:27:38.670Z,1.00
2018-01-24T19:30:08.634Z,1.10
2018-01-24T19:32:36.219Z,0.90
2018-01-24T19:35:03.953Z,1.10
2018-01-24T19:37:31.511Z,1.17
2018-01-24T19:39:59.167Z,0.90
2018-01-24T19:42:26.860Z,1.10
2018-01-24T19:44:54.532Z,1.20
2018-01-24T19:47:22.185Z,1.07
2018-01-24T19:49:49.892Z,0.97
2018-01-24T19:52:17.945Z,0.97
2018-01-24T19:54:56.256Z,1.03
2018-01-24T19:57:32.115Z,0.83
2018-01-24T19:59:59.720Z,0.90
2018-01-24T20:02:27.391Z,1.60
2018-01-24T20:04:55.050Z,1.37
2018-01-24T20:07:22.712Z,1.20
2018-01-24T20:09:50.370Z,1.10
2018-01-24T20:12:18.075Z,1.10
2018-01-24T20:14:45.711Z,0.90
2018-01-24T20:17:13.422Z,1.10
2018-01-24T20:19:41.016Z,0.80
2018-01-24T20:22:08.701Z,1.17
2018-01-24T20:24:36.439Z,0.90
2018-01-24T20:27:04.091Z,1.27
2018-01-24T20:29:31.708Z,0.80
2018-01-24T20:31:59.317Z,1.17
2018-01-24T20:34:32.614Z,0.80
2018-01-24T20:37:00.257Z,1.03
2018-01-24T20:39:32.655Z,1.00
2018-01-24T20:42:00.242Z,0.90
2018-01-24T20:44:38.286Z,1.20
2018-01-24T20:47:08.735Z,1.17
2018-01-24T20:49:36.322Z,1.10
2018-01-24T20:52:04.037Z,1.17
2018-01-24T20:54:31.658Z,1.00
2018-01-24T20:56:59.682Z,1.13
2018-01-24T20:59:27.384Z,1.17
2018-01-24T21:01:55.058Z,1.17
2018-01-24T21:04:22.669Z,1.20
2018-01-24T21:06:50.369Z,0.93
2018-01-24T21:09:18.035Z,1.00
2018-01-24T21:11:46.031Z,0.90
2018-01-24T21:14:13.831Z,1.20
2018-01-24T21:16:41.390Z,1.07
2018-01-24T21:19:09.091Z,1.33
2018-01-24T21:21:37.115Z,0.90
2018-01-24T21:24:04.818Z,1.40
2018-01-24T21:26:38.354Z,1.37
2018-01-24T21:29:29.678Z,1.20
2018-01-24T21:32:14.484Z,1.30
2018-01-24T21:34:53.981Z,1.20
2018-01-24T21:37:26.599Z,1.23
2018-01-24T21:39:54.330Z,1.50
2018-01-24T21:42:21.943Z,1.20
2018-01-24T21:44:49.963Z,1.10
2018-01-24T21:47:17.638Z,0.90
2018-01-24T21:49:45.343Z,1.20
2018-01-24T21:52:13.358Z,0.97
2018-01-24T21:54:41.061Z,1.63
2018-01-24T21:57:09.050Z,1.30
2018-01-24T21:59:36.749Z,1.07
2018-01-24T22:02:04.412Z,1.00
2018-01-24T22:04:32.066Z,1.37
2018-01-24T22:06:59.754Z,1.20
2018-01-24T22:09:27.378Z,1.73
2018-01-24T22:11:55.092Z,1.30
2018-01-24T22:14:22.733Z,1.40
2018-01-24T22:16:50.365Z,1.23
2018-01-24T22:19:18.036Z,1.40
2018-01-24T22:21:50.595Z,1.40
2018-01-24T22:24:18.459Z,1.20
2018-01-24T22:26:50.657Z,1.50
2018-01-24T22:29:18.602Z,1.50
2018-01-24T22:31:46.179Z,1.47
2018-01-24T22:34:13.870Z,1.20
2018-01-24T22:36:41.462Z,1.40
2018-01-24T22:39:09.197Z,1.13
2018-01-24T22:41:37.171Z,1.20
2018-01-24T22:44:04.760Z,1.30
2018-01-24T22:46:32.341Z,1.43
2018-01-24T22:48:59.966Z,1.53
2018-01-24T22:51:27.630Z,1.40
2018-01-24T22:53:55.313Z,1.70
2018-01-24T22:56:23.358Z,1.57
2018-01-24T22:58:51.056Z,1.50
2018-01-24T23:01:18.661Z,1.50
2018-01-24T23:03:46.610Z,1.50
2018-01-24T23:06:14.211Z,1.27
2018-01-24T23:08:41.861Z,1.40
2018-01-24T23:11:14.703Z,1.53
2018-01-24T23:13:42.284Z,1.57
2018-01-24T23:16:09.823Z,1.57
2018-01-24T23:18:37.398Z,1.40
2018-01-24T23:21:08.561Z,1.63
2018-01-24T23:23:36.249Z,1.30
2018-01-24T23:26:03.892Z,1.37
2018-01-24T23:28:31.574Z,1.33
2018-01-24T23:30:59.198Z,1.70
2018-01-24T23:33:26.737Z,1.80
2018-01-24T23:35:54.329Z,1.40
2018-01-24T23:38:22.076Z,1.43
2018-01-24T23:40:50.083Z,1.10
2018-01-24T23:43:17.994Z,1.30
2018-01-24T23:45:46.048Z,1.30
2018-01-24T23:48:13.650Z,1.53
2018-01-24T23:50:41.342Z,1.37
2018-01-24T23:53:09.097Z,1.60
2018-01-24T23:55:36.674Z,1.33
2018-01-24T23:58:04.338Z,1.27
